Columbus Township, Michigan
Current Conditions -  °F | °C
As of 11:36 AM on Friday 31 Oct 2014 (Local Time) from KPHN Reporting Station
Light Rain Light Rain  
Wind Chill: 43°   Ceiling: 2500
Heat Index: 43°   Visibility: 5mi
Dew Point: 41°   Wind: 0mph
Humidity: 93%   Direction: NA
Pressure: 29.89"   Gusts: NA
Location:  42.856°N, 82.6757°W
Report Text: KPHN 311536Z AUTO 00000KT 5SM -RA SCT007 BKN025 OVC038 06/05 A2989 RMK AO2
Loading
Personal Weather Stations






























Interactive Weather Map New forecast layout! Learn more

10-Day Weather Forecast

Advertisements
Track Severe Weather on mobile